createdAt,value
2019-02-05T00:01:33.947Z,10.13
2019-02-05T00:03:54.861Z,10.63
2019-02-05T00:06:16.266Z,9.57
2019-02-05T00:08:37.673Z,9.77
2019-02-05T00:10:58.903Z,10.13
2019-02-05T00:13:20.133Z,9.97
2019-02-05T00:15:41.460Z,9.63
2019-02-05T00:18:03.943Z,9.33
2019-02-05T00:20:39.740Z,8.90
2019-02-05T00:23:00.961Z,9.10
2019-02-05T00:25:23.763Z,9.33
2019-02-05T00:27:45.066Z,9.17
2019-02-05T00:30:09.975Z,9.13
2019-02-05T00:32:31.303Z,9.83
2019-02-05T00:34:52.935Z,9.30
2019-02-05T00:37:14.765Z,8.93
2019-02-05T00:39:40.229Z,9.40
2019-02-05T00:42:01.530Z,8.53
2019-02-05T00:44:23.727Z,9.37
2019-02-05T00:46:45.049Z,8.53
2019-02-05T00:49:06.361Z,9.13
2019-02-05T00:51:27.662Z,8.57
2019-02-05T00:53:48.848Z,8.97
2019-02-05T00:56:17.335Z,9.40
2019-02-05T00:58:33.255Z,9.80
2019-02-05T01:00:54.566Z,9.50
2019-02-05T01:03:15.778Z,9.47
2019-02-05T01:05:37.076Z,9.67
2019-02-05T01:07:58.850Z,9.93
2019-02-05T01:10:21.435Z,9.90
2019-02-05T01:12:42.649Z,9.70
2019-02-05T01:15:07.940Z,9.60
2019-02-05T01:17:29.160Z,8.93
2019-02-05T01:19:50.361Z,8.30
2019-02-05T01:22:11.670Z,7.67
2019-02-05T01:24:33.158Z,7.83
2019-02-05T01:26:54.370Z,7.70
2019-02-05T01:29:15.577Z,8.10
2019-02-05T01:31:36.794Z,8.00
2019-02-05T01:33:58.085Z,7.77
2019-02-05T01:36:19.299Z,7.60
2019-02-05T01:38:40.507Z,7.37
2019-02-05T01:41:01.809Z,7.13
2019-02-05T01:43:23.082Z,7.30
2019-02-05T01:45:44.380Z,7.57
2019-02-05T01:48:05.606Z,6.90
2019-02-05T01:50:26.805Z,6.83
2019-02-05T01:52:48.105Z,6.97
2019-02-05T01:55:09.914Z,6.50
2019-02-05T01:57:31.887Z,7.50
2019-02-05T01:59:53.294Z,8.83
2019-02-05T02:02:14.535Z,8.23
2019-02-05T02:04:35.742Z,8.87
2019-02-05T02:06:56.945Z,9.90
2019-02-05T02:09:18.238Z,11.70
2019-02-05T02:11:39.452Z,11.07
2019-02-05T02:14:00.764Z,11.50
2019-02-05T02:16:22.060Z,9.70
2019-02-05T02:18:43.377Z,8.87
2019-02-05T02:21:04.555Z,8.50
2019-02-05T02:23:25.766Z,9.13
2019-02-05T02:25:46.993Z,7.40
2019-02-05T02:28:08.192Z,7.53
2019-02-05T02:30:32.319Z,7.37
2019-02-05T02:32:53.910Z,7.33
2019-02-05T02:35:15.100Z,6.60
2019-02-05T02:37:36.657Z,6.70
2019-02-05T02:39:57.980Z,6.97
2019-02-05T02:42:19.470Z,6.77
2019-02-05T02:44:41.075Z,6.57
2019-02-05T02:47:02.372Z,6.60
2019-02-05T02:49:23.814Z,7.20
2019-02-05T02:51:45.004Z,7.33
2019-02-05T02:54:06.210Z,7.60
2019-02-05T02:56:27.499Z,9.33
2019-02-05T02:58:48.694Z,10.60
2019-02-05T03:01:09.901Z,13.77
2019-02-05T03:03:31.391Z,12.50
2019-02-05T03:05:53.587Z,12.27
2019-02-05T03:08:14.795Z,12.00
2019-02-05T03:10:36.074Z,13.70
2019-02-05T03:12:57.601Z,12.53
2019-02-05T03:15:18.903Z,10.10
2019-02-05T03:17:40.215Z,9.60
2019-02-05T03:20:06.485Z,9.80
2019-02-05T03:22:27.770Z,10.23
2019-02-05T03:24:49.772Z,10.33
2019-02-05T03:27:18.047Z,10.40
2019-02-05T03:29:34.174Z,10.47
2019-02-05T03:31:55.400Z,9.50
2019-02-05T03:34:16.700Z,9.57
2019-02-05T03:36:38.487Z,9.37
2019-02-05T03:39:00.197Z,9.60
2019-02-05T03:41:21.807Z,8.50
2019-02-05T03:43:43.109Z,9.40
2019-02-05T03:46:04.597Z,8.87
2019-02-05T03:48:25.907Z,8.47
2019-02-05T03:50:49.227Z,8.30
2019-02-05T03:53:19.695Z,8.63
2019-02-05T03:55:47.611Z,9.30
2019-02-05T03:58:38.489Z,8.67
2019-02-05T04:01:26.036Z,9.13
2019-02-05T04:03:57.963Z,8.33
2019-02-05T04:06:44.121Z,8.73
2019-02-05T04:09:11.975Z,8.97
2019-02-05T04:11:54.861Z,8.60
2019-02-05T04:14:19.975Z,8.67
2019-02-05T04:19:46.095Z,7.57
2019-02-05T04:22:25.727Z,7.60
2019-02-05T04:24:53.600Z,7.90
2019-02-05T04:27:21.527Z,7.10
2019-02-05T04:30:12.840Z,7.60
2019-02-05T04:32:44.095Z,7.13
2019-02-05T04:35:28.712Z,7.33
2019-02-05T04:38:24.289Z,7.13
2019-02-05T04:41:07.418Z,7.37
2019-02-05T04:43:47.658Z,7.87
2019-02-05T04:46:35.592Z,7.20
2019-02-05T04:49:06.878Z,7.37
2019-02-05T04:51:43.999Z,7.50
2019-02-05T04:54:17.998Z,7.50
2019-02-05T04:57:10.364Z,7.90
2019-02-05T04:59:38.225Z,7.27
2019-02-05T05:02:38.301Z,6.90
2019-02-05T05:05:20.050Z,7.00
2019-02-05T05:07:54.650Z,7.47
2019-02-05T05:10:16.018Z,7.07
2019-02-05T05:12:37.255Z,7.77
2019-02-05T05:14:58.545Z,8.37
2019-02-05T05:17:19.842Z,7.47
2019-02-05T05:19:41.441Z,7.40
2019-02-05T05:22:02.686Z,8.23
2019-02-05T05:24:43.870Z,7.80
2019-02-05T05:27:05.201Z,7.90
2019-02-05T05:29:26.770Z,8.87
2019-02-05T05:31:48.115Z,8.13
2019-02-05T05:34:09.587Z,8.53
2019-02-05T05:36:31.429Z,8.47
2019-02-05T05:38:53.022Z,8.53
2019-02-05T05:41:43.330Z,8.57
2019-02-05T05:43:58.846Z,8.57
2019-02-05T05:46:26.998Z,8.00
2019-02-05T05:48:50.151Z,8.33
2019-02-05T05:51:11.434Z,8.53
2019-02-05T05:53:32.984Z,8.10
2019-02-05T05:55:54.259Z,7.70
2019-02-05T05:58:22.613Z,10.27
2019-02-05T06:00:38.555Z,9.27
2019-02-05T06:03:00.091Z,8.47
2019-02-05T06:05:21.372Z,9.03
2019-02-05T06:07:43.367Z,8.60
2019-02-05T06:10:08.892Z,8.80
2019-02-05T06:12:30.198Z,8.57
2019-02-05T06:14:51.412Z,7.97
2019-02-05T06:17:12.724Z,8.47
2019-02-05T06:19:34.024Z,8.17
2019-02-05T06:21:55.245Z,8.53
2019-02-05T06:24:16.539Z,8.30
2019-02-05T06:26:37.870Z,7.13
2019-02-05T06:29:00.471Z,7.87
2019-02-05T06:31:22.910Z,9.73
2019-02-05T06:33:44.256Z,27.30
2019-02-05T06:36:05.448Z,20.93
2019-02-05T06:38:26.780Z,10.03
2019-02-05T06:40:48.094Z,8.80
2019-02-05T06:43:09.397Z,8.27
2019-02-05T06:45:30.801Z,7.80
2019-02-05T06:47:52.176Z,8.70
2019-02-05T06:50:13.489Z,8.00
2019-02-05T06:52:36.011Z,8.13
2019-02-05T06:54:57.601Z,7.57
2019-02-05T06:57:19.235Z,7.87
2019-02-05T06:59:41.163Z,7.87
2019-02-05T07:02:03.065Z,8.60
2019-02-05T07:04:24.390Z,8.67
2019-02-05T07:06:45.987Z,9.17
2019-02-05T07:09:07.447Z,10.67
2019-02-05T07:11:28.990Z,9.87
2019-02-05T07:13:50.597Z,11.07
2019-02-05T07:16:11.912Z,11.10
2019-02-05T07:18:33.509Z,10.90
2019-02-05T07:20:54.882Z,10.70
2019-02-05T07:23:16.505Z,11.73
2019-02-05T07:25:38.114Z,11.30
2019-02-05T07:27:59.522Z,11.30
2019-02-05T07:30:25.615Z,12.10
2019-02-05T07:32:47.101Z,11.43
2019-02-05T07:35:08.551Z,10.43
2019-02-05T07:37:29.806Z,11.50
2019-02-05T07:39:51.186Z,10.47
2019-02-05T07:42:12.500Z,10.67
2019-02-05T07:44:34.849Z,11.03
2019-02-05T07:46:56.139Z,10.43
2019-02-05T07:49:17.453Z,10.63
2019-02-05T07:51:38.760Z,10.43
2019-02-05T07:54:00.155Z,10.67
2019-02-05T07:56:21.479Z,10.17
2019-02-05T07:58:42.900Z,10.23
2019-02-05T08:01:04.674Z,10.50
2019-02-05T08:03:26.711Z,10.03
2019-02-05T08:05:48.111Z,9.73
2019-02-05T08:08:09.418Z,10.17
2019-02-05T08:10:31.920Z,9.73
2019-02-05T08:12:53.257Z,10.43
2019-02-05T08:15:23.341Z,10.70
2019-02-05T08:17:44.670Z,25.20
2019-02-05T08:20:07.697Z,27.27
2019-02-05T08:22:32.094Z,19.57
2019-02-05T08:24:53.306Z,14.03
2019-02-05T08:27:14.598Z,12.17
2019-02-05T08:29:35.850Z,10.87
2019-02-05T08:31:57.211Z,10.73
2019-02-05T08:34:18.526Z,10.57
2019-02-05T08:36:40.182Z,9.80
2019-02-05T08:39:01.502Z,9.53
2019-02-05T08:41:22.800Z,10.33
2019-02-05T08:43:44.298Z,10.47
2019-02-05T08:46:05.592Z,9.60
2019-02-05T08:48:26.906Z,9.77
2019-02-05T08:50:48.219Z,10.83
2019-02-05T08:53:09.498Z,10.37
2019-02-05T08:55:31.093Z,10.67
2019-02-05T08:57:55.205Z,11.97
2019-02-05T09:00:18.913Z,11.67
2019-02-05T09:02:40.507Z,12.03
2019-02-05T09:05:03.982Z,12.40
2019-02-05T09:07:25.272Z,11.60
2019-02-05T09:09:46.574Z,12.07
2019-02-05T09:12:07.903Z,12.47
2019-02-05T09:14:29.221Z,12.60
2019-02-05T09:16:50.506Z,12.17
2019-02-05T09:19:11.782Z,12.90
2019-02-05T09:21:33.085Z,12.27
2019-02-05T09:23:54.389Z,12.87
2019-02-05T09:26:15.676Z,12.53
2019-02-05T09:28:37.076Z,12.53
2019-02-05T09:30:58.461Z,13.60
2019-02-05T09:33:19.878Z,13.50
2019-02-05T09:35:41.257Z,12.60
2019-02-05T09:38:02.837Z,13.50
2019-02-05T09:40:31.257Z,12.70
2019-02-05T09:42:52.632Z,13.43
2019-02-05T09:45:14.780Z,13.53
2019-02-05T09:47:36.304Z,14.70
2019-02-05T09:49:57.673Z,14.63
2019-02-05T09:52:19.132Z,14.23
2019-02-05T09:54:40.684Z,21.53
2019-02-05T09:57:02.691Z,20.40
2019-02-05T09:59:24.564Z,15.17
2019-02-05T10:01:45.901Z,14.70
2019-02-05T10:04:07.226Z,14.50
2019-02-05T10:06:28.520Z,14.50
2019-02-05T10:08:50.091Z,14.73
2019-02-05T10:11:11.382Z,16.00
2019-02-05T10:13:32.753Z,15.70
2019-02-05T10:15:54.108Z,16.13
2019-02-05T10:18:15.427Z,16.23
2019-02-05T10:20:36.782Z,16.50
2019-02-05T10:23:00.287Z,15.10
2019-02-05T10:25:21.576Z,15.80
2019-02-05T10:27:43.101Z,15.20
2019-02-05T10:32:55.381Z,15.07
2019-02-05T10:35:17.131Z,15.07
2019-02-05T10:37:38.510Z,15.90
2019-02-05T10:39:59.805Z,17.90
2019-02-05T10:42:21.109Z,17.27
2019-02-05T10:44:42.402Z,17.10
2019-02-05T10:47:04.375Z,16.27
2019-02-05T10:49:25.674Z,15.77
2019-02-05T10:51:46.983Z,16.03
2019-02-05T10:54:08.285Z,14.30
2019-02-05T10:56:29.896Z,15.83
2019-02-05T10:58:51.178Z,15.90
2019-02-05T11:01:12.508Z,16.43
2019-02-05T11:03:33.787Z,14.87
2019-02-05T11:05:55.095Z,15.90
2019-02-05T11:08:16.382Z,17.80
2019-02-05T11:10:37.767Z,16.17
2019-02-05T11:12:59.118Z,15.53
2019-02-05T11:15:25.134Z,15.40
2019-02-05T11:17:46.439Z,17.13
2019-02-05T11:20:11.226Z,16.50
2019-02-05T11:22:32.584Z,16.47
2019-02-05T11:24:53.910Z,16.20
2019-02-05T11:27:15.611Z,15.67
2019-02-05T11:29:37.491Z,15.60
2019-02-05T11:31:59.210Z,17.63
2019-02-05T11:34:20.501Z,18.60
2019-02-05T11:36:41.831Z,18.17
2019-02-05T11:39:06.950Z,16.70
2019-02-05T11:41:28.299Z,17.23
2019-02-05T11:43:49.570Z,16.90
2019-02-05T11:46:11.135Z,17.07
2019-02-05T11:48:32.435Z,18.33
2019-02-05T11:50:53.739Z,16.93
2019-02-05T11:53:15.058Z,16.93
2019-02-05T11:55:36.337Z,16.87
2019-02-05T11:57:57.648Z,17.97
2019-02-05T12:00:32.602Z,17.80
2019-02-05T12:03:00.998Z,16.47
2019-02-05T12:05:22.305Z,16.37
2019-02-05T12:07:43.670Z,17.90
2019-02-05T12:10:11.688Z,17.20
2019-02-05T12:12:33.003Z,16.13
2019-02-05T12:14:54.289Z,15.97
2019-02-05T12:17:15.599Z,15.67
2019-02-05T12:19:36.916Z,16.17
2019-02-05T12:21:58.206Z,14.47
2019-02-05T12:24:19.499Z,12.43
2019-02-05T12:26:40.802Z,12.70
2019-02-05T12:29:02.115Z,12.93
2019-02-05T12:31:24.447Z,12.90
2019-02-05T12:33:45.809Z,11.63
2019-02-05T12:36:07.381Z,12.43
2019-02-05T12:38:28.744Z,12.80
2019-02-05T12:40:49.979Z,13.63
2019-02-05T12:43:11.382Z,14.10
2019-02-05T12:45:34.721Z,13.13
2019-02-05T12:47:56.048Z,13.53
2019-02-05T12:50:23.100Z,12.63
2019-02-05T12:52:44.631Z,11.90
2019-02-05T12:55:13.275Z,13.17
2019-02-05T12:57:30.948Z,12.43
2019-02-05T12:59:53.881Z,12.23
2019-02-05T13:02:15.222Z,12.63
2019-02-05T13:04:36.424Z,11.80
2019-02-05T13:06:57.819Z,12.43
2019-02-05T13:09:19.467Z,11.63
2019-02-05T13:11:40.824Z,12.00
2019-02-05T13:14:02.271Z,11.93
2019-02-05T13:16:23.712Z,11.13
2019-02-05T13:18:45.131Z,11.93
2019-02-05T13:21:06.368Z,11.33
2019-02-05T13:23:27.843Z,11.80
2019-02-05T13:25:49.170Z,12.03
2019-02-05T13:28:10.588Z,11.50
2019-02-05T13:30:33.404Z,11.60
2019-02-05T13:32:54.658Z,11.37
2019-02-05T13:35:18.870Z,11.33
2019-02-05T13:37:40.474Z,11.30
2019-02-05T13:40:05.889Z,11.50
2019-02-05T13:42:27.228Z,11.53
2019-02-05T13:44:48.551Z,11.50
2019-02-05T13:47:09.854Z,11.63
2019-02-05T13:49:31.182Z,11.90
2019-02-05T13:51:52.426Z,11.60
2019-02-05T13:54:13.754Z,11.00
2019-02-05T13:56:35.076Z,10.90
2019-02-05T13:58:56.704Z,10.60
2019-02-05T14:01:20.094Z,10.77
2019-02-05T14:03:41.280Z,10.17
2019-02-05T14:06:02.703Z,10.00
2019-02-05T14:08:24.019Z,10.17
2019-02-05T14:10:46.177Z,9.27
2019-02-05T14:13:09.329Z,9.63
2019-02-05T14:15:32.886Z,10.23
2019-02-05T14:17:54.297Z,9.97
2019-02-05T14:20:15.983Z,9.60
2019-02-05T14:22:37.751Z,9.67
2019-02-05T14:24:58.995Z,9.03
2019-02-05T14:27:21.407Z,9.43
2019-02-05T14:29:42.658Z,9.17
2019-02-05T14:32:04.022Z,9.07
2019-02-05T14:34:25.336Z,9.30
2019-02-05T14:36:46.625Z,9.07
2019-02-05T14:39:08.542Z,9.17
2019-02-05T14:41:29.907Z,7.97
2019-02-05T14:43:51.210Z,8.97
2019-02-05T14:46:13.208Z,8.77
2019-02-05T14:48:34.877Z,9.13
2019-02-05T14:50:56.167Z,8.13
2019-02-05T14:53:17.522Z,8.53
2019-02-05T14:55:38.917Z,9.23
2019-02-05T14:58:00.155Z,8.97
2019-02-05T15:00:26.677Z,8.80
2019-02-05T15:02:50.290Z,8.50
2019-02-05T15:05:11.634Z,8.23
2019-02-05T15:07:32.891Z,8.47
2019-02-05T15:09:54.217Z,7.90
2019-02-05T15:12:15.581Z,7.70
2019-02-05T15:14:36.899Z,7.50
2019-02-05T15:16:58.156Z,7.70
2019-02-05T15:19:20.381Z,7.70
2019-02-05T15:21:41.693Z,7.73
2019-02-05T15:24:03.053Z,7.57
2019-02-05T15:26:24.346Z,6.97
2019-02-05T15:28:45.707Z,6.70
2019-02-05T15:31:07.291Z,6.83
2019-02-05T15:33:42.562Z,7.03
2019-02-05T15:36:12.618Z,6.80
2019-02-05T15:38:34.038Z,7.70
2019-02-05T15:40:55.460Z,7.83
2019-02-05T15:43:16.897Z,8.07
2019-02-05T15:45:38.198Z,8.10
2019-02-05T15:47:59.392Z,8.90
2019-02-05T15:50:20.707Z,9.03
2019-02-05T15:52:41.928Z,8.90
2019-02-05T15:55:06.250Z,8.43
2019-02-05T15:57:27.879Z,9.07
2019-02-05T15:59:49.102Z,10.83
2019-02-05T16:02:10.322Z,10.80
2019-02-05T16:04:31.525Z,9.87
2019-02-05T16:06:52.856Z,9.87
2019-02-05T16:09:14.036Z,10.10
2019-02-05T16:11:35.246Z,9.77
2019-02-05T16:13:57.424Z,9.73
2019-02-05T16:16:18.970Z,10.70
2019-02-05T16:18:40.457Z,14.60
2019-02-05T16:21:01.962Z,12.00
2019-02-05T16:23:23.267Z,10.63
2019-02-05T16:25:44.492Z,10.23
2019-02-05T16:28:05.881Z,10.17
2019-02-05T16:30:28.759Z,9.63
2019-02-05T16:32:50.051Z,9.30
2019-02-05T16:35:12.597Z,9.17
2019-02-05T16:37:33.948Z,9.80
2019-02-05T16:39:55.200Z,9.20
2019-02-05T16:42:18.438Z,9.23
2019-02-05T16:44:39.792Z,9.33
2019-02-05T16:47:01.294Z,9.03
2019-02-05T16:49:29.043Z,8.87
2019-02-05T16:52:04.430Z,8.80
2019-02-05T16:54:25.631Z,8.50
2019-02-05T16:56:47.156Z,8.87
2019-02-05T16:59:08.457Z,9.53
2019-02-05T17:01:30.968Z,9.73
2019-02-05T17:03:53.538Z,11.13
2019-02-05T17:06:15.148Z,11.80
2019-02-05T17:08:36.500Z,12.00
2019-02-05T17:10:57.753Z,10.90
2019-02-05T17:13:18.998Z,10.67
2019-02-05T17:15:40.199Z,9.40
2019-02-05T17:18:02.048Z,9.30
2019-02-05T17:20:28.511Z,9.60
2019-02-05T17:22:52.296Z,9.43
2019-02-05T17:25:16.499Z,9.80
2019-02-05T17:27:38.375Z,10.20
2019-02-05T17:30:00.118Z,10.37
2019-02-05T17:32:21.531Z,9.70
2019-02-05T17:34:45.824Z,9.87
2019-02-05T17:37:07.357Z,10.50
2019-02-05T17:39:29.111Z,14.80
2019-02-05T17:41:50.774Z,24.63
2019-02-05T17:44:13.380Z,15.77
2019-02-05T17:46:34.713Z,10.77
2019-02-05T17:48:56.290Z,10.97
2019-02-05T17:51:17.615Z,10.20
2019-02-05T17:53:38.871Z,10.63
2019-02-05T17:56:00.145Z,10.50
2019-02-05T17:58:21.682Z,10.67
2019-02-05T18:01:00.190Z,11.63
2019-02-05T18:03:22.522Z,10.07
2019-02-05T18:05:43.728Z,10.13
2019-02-05T18:08:05.264Z,9.97
2019-02-05T18:10:27.211Z,10.50
2019-02-05T18:12:48.442Z,11.63
2019-02-05T18:15:13.727Z,11.60
2019-02-05T18:17:34.981Z,11.60
2019-02-05T18:19:56.304Z,11.53
2019-02-05T18:22:17.546Z,11.47
2019-02-05T18:24:39.001Z,12.07
2019-02-05T18:27:00.185Z,11.10
2019-02-05T18:29:21.506Z,11.80
2019-02-05T18:31:43.121Z,10.77
2019-02-05T18:34:04.819Z,11.23
2019-02-05T18:36:26.785Z,11.60
2019-02-05T18:38:48.923Z,12.07
2019-02-05T18:41:11.437Z,11.63
2019-02-05T18:43:32.736Z,12.57
2019-02-05T18:45:54.035Z,12.90
2019-02-05T18:48:15.351Z,12.77
2019-02-05T18:50:36.632Z,12.93
2019-02-05T18:52:57.846Z,18.27
2019-02-05T18:55:20.323Z,27.60
2019-02-05T18:57:41.519Z,24.27
2019-02-05T19:00:15.445Z,19.63
2019-02-05T19:02:36.795Z,49.90
2019-02-05T19:04:58.114Z,76.73
2019-02-05T19:07:19.306Z,17.53
2019-02-05T19:09:40.518Z,16.20
2019-02-05T19:12:04.770Z,15.53
2019-02-05T19:14:24.904Z,14.07
2019-02-05T19:16:46.578Z,14.47
2019-02-05T19:19:15.070Z,13.70
2019-02-05T19:21:31.578Z,14.27
2019-02-05T19:23:54.686Z,13.27
2019-02-05T19:26:17.004Z,16.87
2019-02-05T19:28:38.403Z,13.30
2019-02-05T19:31:01.511Z,13.17
2019-02-05T19:33:27.178Z,14.43
2019-02-05T19:35:45.926Z,13.40
2019-02-05T19:38:07.214Z,12.73
2019-02-05T19:40:29.470Z,12.50
2019-02-05T19:42:50.845Z,13.43
2019-02-05T19:45:32.163Z,13.57
2019-02-05T19:47:53.882Z,12.97
2019-02-05T19:50:15.245Z,13.03
2019-02-05T19:52:37.063Z,12.37
2019-02-05T19:54:58.567Z,13.27
2019-02-05T19:57:19.874Z,13.40
2019-02-05T19:59:42.051Z,13.23
2019-02-05T20:02:05.938Z,13.70
2019-02-05T20:04:29.551Z,13.37
2019-02-05T20:06:51.767Z,13.60
2019-02-05T20:09:14.040Z,14.30
2019-02-05T20:11:35.277Z,13.17
2019-02-05T20:13:56.484Z,20.07
2019-02-05T20:16:17.712Z,14.97
2019-02-05T20:18:39.488Z,14.07
2019-02-05T20:21:01.413Z,14.03
2019-02-05T20:23:23.325Z,13.90
2019-02-05T20:25:44.570Z,13.37
2019-02-05T20:28:06.076Z,12.97
2019-02-05T20:30:27.379Z,13.73
2019-02-05T20:32:48.594Z,13.87
2019-02-05T20:35:09.882Z,14.53
2019-02-05T20:37:31.614Z,14.97
2019-02-05T20:39:52.927Z,18.07
2019-02-05T20:42:14.853Z,16.03
2019-02-05T20:44:36.222Z,15.03
2019-02-05T20:46:58.797Z,14.33
2019-02-05T20:49:21.275Z,14.20
2019-02-05T20:51:42.797Z,13.77
2019-02-05T20:54:04.103Z,14.57
2019-02-05T20:56:26.606Z,14.13
2019-02-05T20:58:48.037Z,14.87
2019-02-05T21:01:09.487Z,14.90
2019-02-05T21:03:31.170Z,31.00
2019-02-05T21:05:52.706Z,31.03
2019-02-05T21:08:14.168Z,18.20
2019-02-05T21:10:35.723Z,14.43
2019-02-05T21:12:57.006Z,14.07
2019-02-05T21:15:40.156Z,16.20
2019-02-05T21:18:01.476Z,15.03
2019-02-05T21:20:29.173Z,14.73
2019-02-05T21:22:48.033Z,14.60
2019-02-05T21:25:12.612Z,14.90
2019-02-05T21:27:33.825Z,13.10
2019-02-05T21:29:55.402Z,14.67
2019-02-05T21:32:16.903Z,14.23
2019-02-05T21:34:38.174Z,15.23
2019-02-05T21:36:59.426Z,14.53
2019-02-05T21:39:20.634Z,14.57
2019-02-05T21:41:41.949Z,14.50
2019-02-05T21:44:03.919Z,13.07
2019-02-05T21:46:25.234Z,13.03
2019-02-05T21:48:46.806Z,12.70
2019-02-05T21:51:08.325Z,13.60
2019-02-05T21:53:29.638Z,12.40
2019-02-05T21:55:51.302Z,12.60
2019-02-05T21:58:12.702Z,13.83
2019-02-05T22:00:35.067Z,13.97
2019-02-05T22:02:56.777Z,12.50
2019-02-05T22:05:18.163Z,11.37
2019-02-05T22:07:39.473Z,10.47
2019-02-05T22:10:00.915Z,9.43
2019-02-05T22:12:22.226Z,8.47
2019-02-05T22:14:43.737Z,9.07
2019-02-05T22:17:05.694Z,8.60
2019-02-05T22:19:26.977Z,9.27
2019-02-05T22:21:48.569Z,9.67
2019-02-05T22:24:10.266Z,9.10
2019-02-05T22:26:31.728Z,8.60
2019-02-05T22:28:53.403Z,8.40
2019-02-05T22:31:14.688Z,9.07
2019-02-05T22:33:36.590Z,9.57
2019-02-05T22:35:58.829Z,8.67
2019-02-05T22:38:20.438Z,8.67
2019-02-05T22:40:41.919Z,10.80
2019-02-05T22:43:03.709Z,9.67
2019-02-05T22:45:28.015Z,9.30
2019-02-05T22:47:49.401Z,9.50
2019-02-05T22:50:28.214Z,10.07
2019-02-05T22:52:49.504Z,29.17
2019-02-05T22:55:11.431Z,12.47
2019-02-05T22:57:33.795Z,10.43
2019-02-05T22:59:55.121Z,9.47
2019-02-05T23:02:16.859Z,10.40
2019-02-05T23:04:50.182Z,10.23
2019-02-05T23:07:09.245Z,9.30
2019-02-05T23:09:46.445Z,9.73
2019-02-05T23:12:26.814Z,10.67
2019-02-05T23:14:58.182Z,10.20
2019-02-05T23:17:19.485Z,10.03
2019-02-05T23:19:40.670Z,9.60
2019-02-05T23:22:03.877Z,9.23
2019-02-05T23:24:27.400Z,9.67
2019-02-05T23:26:50.578Z,9.93
2019-02-05T23:29:11.786Z,9.33
2019-02-05T23:31:33.083Z,9.70
2019-02-05T23:33:54.746Z,10.10
2019-02-05T23:36:16.140Z,9.23
2019-02-05T23:38:38.394Z,9.60
2019-02-05T23:40:59.589Z,10.03
2019-02-05T23:43:21.876Z,10.17
2019-02-05T23:45:43.711Z,10.30
2019-02-05T23:48:06.220Z,10.03
2019-02-05T23:50:28.046Z,10.33
2019-02-05T23:52:49.416Z,9.80
2019-02-05T23:55:12.116Z,9.67
2019-02-05T23:57:33.352Z,9.50
2019-02-05T23:59:54.781Z,9.93
